Armstrong, Missouri
Current Conditions -  °F | °C
As of 11:55 AM on Thursday 30 Oct 2014 (Local Time) from KVER Reporting Station
Overcast Overcast  
Wind Chill: 46°   Ceiling: 9000
Heat Index: 50°   Visibility: 10mi
Dew Point: 42°   Wind: 8mph
Humidity: 76%   Direction: 150°SSE
Pressure: 30.04"   Gusts: NA
Location:  39.27°N, 92.7°W
Report Text: KVER 301655Z AUTO 15007KT 10SM SCT060 SCT070 OVC090 10/06 A3004 RMK AO2 T00980058
Loading
Personal Weather Stations






























Interactive Weather Map New forecast layout! Learn more

10-Day Weather Forecast

Advertisements
Track Severe Weather on mobile